This is the latest recevied weather packets stored in our database for station/object LRAR. If no packets are shown the sender has not sent any weather packets the latest 10 day(s).
| Time | Temp. | Humidity | Pressure | Rain* | Wind** | Luminosity | Snow |
|---|---|---|---|---|---|---|---|
| 1777238319 | 10° C | 37% | 1022 hPa | - | - | - | - |
| 1777237419 | 10° C | 37% | 1022 hPa | - | - | - | - |
| 1777236519 | 11.11° C | 35% | 1022 hPa | - | - | - | - |
| 1777235618 | 11.11° C | 35% | 1022 hPa | - | - | - | - |
| 1777234719 | 11.11° C | 35% | 1021 hPa | - | - | - | - |
| 1777233819 | 11.11° C | 35% | 1021 hPa | - | - | - | - |
| 1777232929 | 12.22° C | 33% | 1021 hPa | - | - | - | - |
| 1777232018 | 12.22° C | 33% | 1021 hPa | - | - | - | - |
| 1777231119 | 12.22° C | 35% | 1020 hPa | - | - | - | - |
| 1777230218 | 12.22° C | 35% | 1020 hPa | - | - | - | - |
| 1777229318 | 12.22° C | 38% | 1020 hPa | - | - | - | - |
| 1777228419 | 12.22° C | 38% | 1020 hPa | - | - | - | - |
| 1777227535 | 12.78° C | 36% | 1019 hPa | - | - | - | - |
| 1777226618 | 12.78° C | 36% | 1019 hPa | - | - | - | - |
| 1777225719 | 13.89° C | 33% | 1018 hPa | - | - | - | - |
| 1777224818 | 13.89° C | 33% | 1018 hPa | - | - | - | - |
| 1777223919 | 16.11° C | 29% | 1018 hPa | - | - | - | - |
| 1777223018 | 16.11° C | 29% | 1018 hPa | - | - | - | - |
| 1777222115 | 16.11° C | 31% | 1018 hPa | - | - | - | - |
| 1777221212 | 16.11° C | 31% | 1018 hPa | - | - | - | - |
| 1777220312 | 17.22° C | 32% | 1017 hPa | - | - | - | - |
| 1777219416 | 17.22° C | 32% | 1017 hPa | - | - | - | - |
| 1777218509 | 17.78° C | 30% | 1017 hPa | - | - | - | - |
| 1777217616 | 17.78° C | 30% | 1017 hPa | - | - | - | - |
| 1777216712 | 18.89° C | 30% | 1017 hPa | - | - | - | - |
* Rain since midnight (hover to see other rain measurements)
** Current wind speed in m/s (hover to see current wind gust speed)